sensor_id;sensor_type;location;lat;lon;timestamp;P1;durP1;ratioP1;P2;durP2;ratioP2
40453;SDS011;26160;51.858;4.398;2023-03-01T00:01:31;32.53;;;21.53;;
40453;SDS011;26160;51.858;4.398;2023-03-01T00:03:58;29.80;;;21.53;;
40453;SDS011;26160;51.858;4.398;2023-03-01T00:09:01;30.67;;;21.80;;
40453;SDS011;26160;51.858;4.398;2023-03-01T00:11:31;33.90;;;22.80;;
40453;SDS011;26160;51.858;4.398;2023-03-01T00:13:59;34.17;;;24.50;;
40453;SDS011;26160;51.858;4.398;2023-03-01T00:19:20;36.40;;;23.87;;
40453;SDS011;26160;51.858;4.398;2023-03-01T00:21:49;30.30;;;22.50;;
40453;SDS011;26160;51.858;4.398;2023-03-01T00:24:16;38.27;;;26.60;;
40453;SDS011;26160;51.858;4.398;2023-03-01T00:26:45;34.00;;;23.37;;
40453;SDS011;26160;51.858;4.398;2023-03-01T00:32:01;30.60;;;23.13;;
40453;SDS011;26160;51.858;4.398;2023-03-01T00:34:27;34.27;;;21.80;;
40453;SDS011;26160;51.858;4.398;2023-03-01T00:36:55;32.10;;;24.53;;
40453;SDS011;26160;51.858;4.398;2023-03-01T00:39:31;31.03;;;23.03;;
40453;SDS011;26160;51.858;4.398;2023-03-01T00:41:59;35.73;;;23.13;;
40453;SDS011;26160;51.858;4.398;2023-03-01T00:44:28;33.70;;;22.73;;
40453;SDS011;26160;51.858;4.398;2023-03-01T00:49:24;32.40;;;23.27;;
40453;SDS011;26160;51.858;4.398;2023-03-01T00:51:53;30.70;;;22.07;;
40453;SDS011;26160;51.858;4.398;2023-03-01T00:56:57;31.47;;;22.40;;
40453;SDS011;26160;51.858;4.398;2023-03-01T00:59:24;32.40;;;22.63;;
40453;SDS011;26160;51.858;4.398;2023-03-01T01:04:53;37.25;;;23.98;;
40453;SDS011;26160;51.858;4.398;2023-03-01T01:07:27;31.83;;;22.80;;
40453;SDS011;26160;51.858;4.398;2023-03-01T01:09:54;35.93;;;24.43;;
40453;SDS011;26160;51.858;4.398;2023-03-01T01:14:56;40.50;;;26.77;;
40453;SDS011;26160;51.858;4.398;2023-03-01T01:20:15;34.57;;;24.00;;
40453;SDS011;26160;51.858;4.398;2023-03-01T01:22:41;39.30;;;26.07;;
40453;SDS011;26160;51.858;4.398;2023-03-01T01:25:15;36.93;;;26.73;;
40453;SDS011;26160;51.858;4.398;2023-03-01T01:27:44;37.40;;;24.80;;
40453;SDS011;26160;51.858;4.398;2023-03-01T01:32:50;41.67;;;25.77;;
40453;SDS011;26160;51.858;4.398;2023-03-01T01:35:16;39.13;;;26.30;;
40453;SDS011;26160;51.858;4.398;2023-03-01T01:45:32;38.73;;;26.20;;
40453;SDS011;26160;51.858;4.398;2023-03-01T01:53:12;42.47;;;28.43;;
40453;SDS011;26160;51.858;4.398;2023-03-01T01:55:45;50.33;;;32.35;;
40453;SDS011;26160;51.858;4.398;2023-03-01T01:58:29;45.53;;;28.55;;
40453;SDS011;26160;51.858;4.398;2023-03-01T02:03:33;54.33;;;33.93;;
40453;SDS011;26160;51.858;4.398;2023-03-01T02:15:40;46.27;;;30.10;;
40453;SDS011;26160;51.858;4.398;2023-03-01T02:28:37;48.28;;;30.02;;
40453;SDS011;26160;51.858;4.398;2023-03-01T02:33:38;50.47;;;32.13;;
40453;SDS011;26160;51.858;4.398;2023-03-01T02:36:09;53.57;;;34.37;;
40453;SDS011;26160;51.858;4.398;2023-03-01T02:41:19;47.50;;;31.40;;
40453;SDS011;26160;51.858;4.398;2023-03-01T02:43:47;49.37;;;30.83;;
40453;SDS011;26160;51.858;4.398;2023-03-01T02:46:17;51.57;;;33.73;;
40453;SDS011;26160;51.858;4.398;2023-03-01T02:57:30;52.60;;;33.47;;
40453;SDS011;26160;51.858;4.398;2023-03-01T03:00:02;50.37;;;31.30;;
40453;SDS011;26160;51.858;4.398;2023-03-01T03:02:33;52.87;;;34.57;;
40453;SDS011;26160;51.858;4.398;2023-03-01T03:07:38;45.70;;;30.40;;
40453;SDS011;26160;51.858;4.398;2023-03-01T03:10:07;47.57;;;31.60;;
40453;SDS011;26160;51.858;4.398;2023-03-01T03:12:42;44.60;;;29.90;;
40453;SDS011;26160;51.858;4.398;2023-03-01T03:15:08;50.50;;;31.83;;
40453;SDS011;26160;51.858;4.398;2023-03-01T03:17:38;46.33;;;30.37;;
40453;SDS011;26160;51.858;4.398;2023-03-01T03:20:06;52.90;;;31.60;;
40453;SDS011;26160;51.858;4.398;2023-03-01T03:22:40;53.40;;;32.50;;
40453;SDS011;26160;51.858;4.398;2023-03-01T03:25:07;48.23;;;31.23;;
40453;SDS011;26160;51.858;4.398;2023-03-01T03:32:49;41.27;;;27.80;;
40453;SDS011;26160;51.858;4.398;2023-03-01T03:41:01;44.77;;;27.47;;
40453;SDS011;26160;51.858;4.398;2023-03-01T04:16:34;49.27;;;26.73;;
40453;SDS011;26160;51.858;4.398;2023-03-01T04:22:17;45.80;;;24.60;;
40453;SDS011;26160;51.858;4.398;2023-03-01T04:29:58;39.27;;;25.40;;
40453;SDS011;26160;51.858;4.398;2023-03-01T04:35:25;35.93;;;22.43;;
40453;SDS011;26160;51.858;4.398;2023-03-01T05:25:05;36.00;;;22.77;;
40453;SDS011;26160;51.858;4.398;2023-03-01T05:40:34;44.30;;;27.90;;
40453;SDS011;26160;51.858;4.398;2023-03-01T06:42:29;45.37;;;26.57;;
40453;SDS011;26160;51.858;4.398;2023-03-01T06:44:55;42.93;;;27.27;;
40453;SDS011;26160;51.858;4.398;2023-03-01T06:47:21;48.00;;;26.53;;
40453;SDS011;26160;51.858;4.398;2023-03-01T06:49:54;40.63;;;25.37;;
40453;SDS011;26160;51.858;4.398;2023-03-01T06:52:37;43.60;;;27.23;;
40453;SDS011;26160;51.858;4.398;2023-03-01T06:58:11;44.10;;;26.80;;
40453;SDS011;26160;51.858;4.398;2023-03-01T07:00:48;43.67;;;27.23;;
40453;SDS011;26160;51.858;4.398;2023-03-01T07:05:59;46.17;;;27.70;;
40453;SDS011;26160;51.858;4.398;2023-03-01T07:17:11;43.60;;;25.97;;
40453;SDS011;26160;51.858;4.398;2023-03-01T07:25:26;42.33;;;25.20;;
40453;SDS011;26160;51.858;4.398;2023-03-01T07:28:09;45.50;;;26.70;;
40453;SDS011;26160;51.858;4.398;2023-03-01T07:30:36;45.07;;;26.30;;
40453;SDS011;26160;51.858;4.398;2023-03-01T07:33:02;48.63;;;26.00;;
40453;SDS011;26160;51.858;4.398;2023-03-01T07:35:36;43.60;;;27.67;;
40453;SDS011;26160;51.858;4.398;2023-03-01T07:38:02;44.83;;;27.13;;
40453;SDS011;26160;51.858;4.398;2023-03-01T07:40:29;41.07;;;25.00;;
40453;SDS011;26160;51.858;4.398;2023-03-01T07:43:02;37.57;;;25.47;;
40453;SDS011;26160;51.858;4.398;2023-03-01T07:50:47;35.60;;;22.37;;
40453;SDS011;26160;51.858;4.398;2023-03-01T07:56:19;33.17;;;21.93;;
40453;SDS011;26160;51.858;4.398;2023-03-01T07:58:47;29.73;;;20.23;;
40453;SDS011;26160;51.858;4.398;2023-03-01T08:01:29;32.07;;;21.67;;
40453;SDS011;26160;51.858;4.398;2023-03-01T08:06:42;29.03;;;19.23;;
40453;SDS011;26160;51.858;4.398;2023-03-01T08:14:20;26.33;;;17.57;;
40453;SDS011;26160;51.858;4.398;2023-03-01T08:16:48;25.47;;;17.13;;
40453;SDS011;26160;51.858;4.398;2023-03-01T08:24:31;24.37;;;15.87;;
40453;SDS011;26160;51.858;4.398;2023-03-01T08:26:58;22.67;;;15.17;;
40453;SDS011;26160;51.858;4.398;2023-03-01T08:29:34;22.70;;;13.33;;
40453;SDS011;26160;51.858;4.398;2023-03-01T08:32:03;18.67;;;10.33;;
40453;SDS011;26160;51.858;4.398;2023-03-01T08:37:32;21.42;;;12.85;;
40453;SDS011;26160;51.858;4.398;2023-03-01T08:39:59;18.33;;;10.93;;
40453;SDS011;26160;51.858;4.398;2023-03-01T08:45:12;19.20;;;9.63;;
40453;SDS011;26160;51.858;4.398;2023-03-01T08:56:11;11.93;;;7.87;;
40453;SDS011;26160;51.858;4.398;2023-03-01T08:58:38;14.30;;;8.70;;
40453;SDS011;26160;51.858;4.398;2023-03-01T09:01:21;13.83;;;8.87;;
40453;SDS011;26160;51.858;4.398;2023-03-01T09:16:56;14.90;;;6.70;;
40453;SDS011;26160;51.858;4.398;2023-03-01T09:32:52;9.83;;;5.73;;
40453;SDS011;26160;51.858;4.398;2023-03-01T09:35:18;11.23;;;6.17;;
40453;SDS011;26160;51.858;4.398;2023-03-01T09:37:52;11.53;;;6.33;;
40453;SDS011;26160;51.858;4.398;2023-03-01T09:40:27;10.90;;;5.67;;
40453;SDS011;26160;51.858;4.398;2023-03-01T09:46:00;9.20;;;5.83;;
40453;SDS011;26160;51.858;4.398;2023-03-01T09:48:42;11.73;;;6.75;;
40453;SDS011;26160;51.858;4.398;2023-03-01T09:51:18;7.87;;;6.40;;
40453;SDS011;26160;51.858;4.398;2023-03-01T09:53:50;11.00;;;6.43;;
40453;SDS011;26160;51.858;4.398;2023-03-01T09:56:22;8.27;;;5.77;;
40453;SDS011;26160;51.858;4.398;2023-03-01T10:04:34;7.33;;;4.47;;
40453;SDS011;26160;51.858;4.398;2023-03-01T10:07:21;6.17;;;4.53;;
40453;SDS011;26160;51.858;4.398;2023-03-01T10:09:51;6.60;;;5.00;;
40453;SDS011;26160;51.858;4.398;2023-03-01T10:12:37;5.93;;;4.80;;
40453;SDS011;26160;51.858;4.398;2023-03-01T10:20:52;6.80;;;4.70;;
40453;SDS011;26160;51.858;4.398;2023-03-01T10:31:12;10.73;;;5.13;;
40453;SDS011;26160;51.858;4.398;2023-03-01T10:36:31;7.60;;;4.10;;
40453;SDS011;26160;51.858;4.398;2023-03-01T10:38:59;6.63;;;4.03;;
40453;SDS011;26160;51.858;4.398;2023-03-01T10:42:03;4.93;;;3.60;;
40453;SDS011;26160;51.858;4.398;2023-03-01T10:52:36;7.47;;;4.90;;
40453;SDS011;26160;51.858;4.398;2023-03-01T10:57:41;7.60;;;4.73;;
40453;SDS011;26160;51.858;4.398;2023-03-01T11:00:20;6.67;;;4.70;;
40453;SDS011;26160;51.858;4.398;2023-03-01T11:03:03;9.00;;;4.65;;
40453;SDS011;26160;51.858;4.398;2023-03-01T11:08:46;8.07;;;4.87;;
40453;SDS011;26160;51.858;4.398;2023-03-01T11:11:18;7.30;;;5.27;;
40453;SDS011;26160;51.858;4.398;2023-03-01T11:23:30;15.03;;;5.93;;
40453;SDS011;26160;51.858;4.398;2023-03-01T11:26:09;8.83;;;5.77;;
40453;SDS011;26160;51.858;4.398;2023-03-01T11:28:36;8.40;;;5.17;;
40453;SDS011;26160;51.858;4.398;2023-03-01T11:31:08;9.70;;;6.13;;
40453;SDS011;26160;51.858;4.398;2023-03-01T11:33:48;11.33;;;5.80;;
40453;SDS011;26160;51.858;4.398;2023-03-01T11:36:51;8.20;;;6.27;;
40453;SDS011;26160;51.858;4.398;2023-03-01T11:44:53;9.17;;;5.73;;
40453;SDS011;26160;51.858;4.398;2023-03-01T11:56:16;8.93;;;6.23;;
40453;SDS011;26160;51.858;4.398;2023-03-01T11:59:39;7.40;;;5.63;;
40453;SDS011;26160;51.858;4.398;2023-03-01T12:02:19;9.60;;;6.28;;
40453;SDS011;26160;51.858;4.398;2023-03-01T12:17:14;10.70;;;6.37;;
40453;SDS011;26160;51.858;4.398;2023-03-01T12:22:23;14.30;;;7.27;;
40453;SDS011;26160;51.858;4.398;2023-03-01T12:47:35;7.30;;;5.30;;
40453;SDS011;26160;51.858;4.398;2023-03-01T12:52:43;8.27;;;6.17;;
40453;SDS011;26160;51.858;4.398;2023-03-01T13:15:27;6.60;;;4.67;;
40453;SDS011;26160;51.858;4.398;2023-03-01T13:17:57;9.40;;;5.30;;
40453;SDS011;26160;51.858;4.398;2023-03-01T13:31:00;9.20;;;5.40;;
40453;SDS011;26160;51.858;4.398;2023-03-01T13:35:55;5.93;;;4.30;;
40453;SDS011;26160;51.858;4.398;2023-03-01T13:38:42;6.63;;;4.57;;
40453;SDS011;26160;51.858;4.398;2023-03-01T13:41:11;7.67;;;5.80;;
40453;SDS011;26160;51.858;4.398;2023-03-01T13:43:43;6.60;;;4.60;;
40453;SDS011;26160;51.858;4.398;2023-03-01T13:46:16;8.33;;;5.30;;
40453;SDS011;26160;51.858;4.398;2023-03-01T13:48:46;6.50;;;5.10;;
40453;SDS011;26160;51.858;4.398;2023-03-01T13:51:26;6.10;;;4.63;;
40453;SDS011;26160;51.858;4.398;2023-03-01T13:54:09;6.40;;;5.10;;
40453;SDS011;26160;51.858;4.398;2023-03-01T13:56:40;8.83;;;5.10;;
40453;SDS011;26160;51.858;4.398;2023-03-01T13:59:13;12.30;;;5.60;;
40453;SDS011;26160;51.858;4.398;2023-03-01T14:02:00;8.27;;;5.38;;
40453;SDS011;26160;51.858;4.398;2023-03-01T14:04:31;7.50;;;4.80;;
40453;SDS011;26160;51.858;4.398;2023-03-01T14:07:18;8.37;;;4.30;;
40453;SDS011;26160;51.858;4.398;2023-03-01T14:09:56;6.07;;;4.50;;
40453;SDS011;26160;51.858;4.398;2023-03-01T14:15:29;8.13;;;4.65;;
40453;SDS011;26160;51.858;4.398;2023-03-01T14:18:10;6.50;;;4.73;;
40453;SDS011;26160;51.858;4.398;2023-03-01T14:20:50;9.93;;;5.40;;
40453;SDS011;26160;51.858;4.398;2023-03-01T14:23:19;7.13;;;4.80;;
40453;SDS011;26160;51.858;4.398;2023-03-01T14:28:29;6.73;;;4.50;;
40453;SDS011;26160;51.858;4.398;2023-03-01T14:31:38;5.93;;;4.00;;
40453;SDS011;26160;51.858;4.398;2023-03-01T14:34:16;6.93;;;4.50;;
40453;SDS011;26160;51.858;4.398;2023-03-01T14:36:45;9.90;;;4.90;;
40453;SDS011;26160;51.858;4.398;2023-03-01T14:39:23;5.20;;;4.27;;
40453;SDS011;26160;51.858;4.398;2023-03-01T14:41:51;5.05;;;3.90;;
40453;SDS011;26160;51.858;4.398;2023-03-01T14:44:21;6.47;;;4.30;;
40453;SDS011;26160;51.858;4.398;2023-03-01T14:46:53;6.33;;;4.60;;
40453;SDS011;26160;51.858;4.398;2023-03-01T14:49:29;5.13;;;3.70;;
40453;SDS011;26160;51.858;4.398;2023-03-01T14:52:03;6.93;;;4.13;;
40453;SDS011;26160;51.858;4.398;2023-03-01T14:54:51;7.53;;;4.40;;
40453;SDS011;26160;51.858;4.398;2023-03-01T14:57:22;7.47;;;5.00;;
40453;SDS011;26160;51.858;4.398;2023-03-01T14:59:53;5.67;;;4.17;;
40453;SDS011;26160;51.858;4.398;2023-03-01T15:02:26;5.87;;;4.23;;
40453;SDS011;26160;51.858;4.398;2023-03-01T15:04:59;6.80;;;4.10;;
40453;SDS011;26160;51.858;4.398;2023-03-01T15:07:34;6.47;;;4.67;;
40453;SDS011;26160;51.858;4.398;2023-03-01T15:10:05;5.45;;;4.10;;
40453;SDS011;26160;51.858;4.398;2023-03-01T15:12:37;6.03;;;4.60;;
40453;SDS011;26160;51.858;4.398;2023-03-01T15:15:21;6.13;;;4.60;;
40453;SDS011;26160;51.858;4.398;2023-03-01T15:17:59;7.03;;;4.40;;
40453;SDS011;26160;51.858;4.398;2023-03-01T15:20:30;13.23;;;6.30;;
40453;SDS011;26160;51.858;4.398;2023-03-01T15:23:00;8.73;;;4.90;;
40453;SDS011;26160;51.858;4.398;2023-03-01T15:25:28;5.80;;;4.30;;
40453;SDS011;26160;51.858;4.398;2023-03-01T15:27:56;6.67;;;4.37;;
40453;SDS011;26160;51.858;4.398;2023-03-01T15:30:29;7.30;;;3.93;;
40453;SDS011;26160;51.858;4.398;2023-03-01T15:33:45;5.23;;;4.00;;
40453;SDS011;26160;51.858;4.398;2023-03-01T15:35:56;5.78;;;3.88;;
40453;SDS011;26160;51.858;4.398;2023-03-01T15:41:27;7.27;;;4.20;;
40453;SDS011;26160;51.858;4.398;2023-03-01T15:46:52;5.57;;;4.17;;
40453;SDS011;26160;51.858;4.398;2023-03-01T15:51:52;10.93;;;5.05;;
40453;SDS011;26160;51.858;4.398;2023-03-01T15:54:21;9.53;;;4.80;;
40453;SDS011;26160;51.858;4.398;2023-03-01T15:56:50;5.67;;;4.47;;
40453;SDS011;26160;51.858;4.398;2023-03-01T15:59:16;8.80;;;4.97;;
40453;SDS011;26160;51.858;4.398;2023-03-01T16:01:43;15.43;;;5.73;;
40453;SDS011;26160;51.858;4.398;2023-03-01T16:04:11;5.80;;;4.17;;
40453;SDS011;26160;51.858;4.398;2023-03-01T16:06:41;7.07;;;4.50;;
40453;SDS011;26160;51.858;4.398;2023-03-01T16:09:07;12.27;;;4.80;;
40453;SDS011;26160;51.858;4.398;2023-03-01T16:11:34;5.90;;;4.70;;
40453;SDS011;26160;51.858;4.398;2023-03-01T16:14:02;8.27;;;5.00;;
40453;SDS011;26160;51.858;4.398;2023-03-01T16:16:28;7.73;;;4.50;;
40453;SDS011;26160;51.858;4.398;2023-03-01T16:18:55;7.03;;;4.50;;
40453;SDS011;26160;51.858;4.398;2023-03-01T16:21:24;10.53;;;5.47;;
40453;SDS011;26160;51.858;4.398;2023-03-01T16:23:50;5.20;;;4.43;;
40453;SDS011;26160;51.858;4.398;2023-03-01T16:26:17;8.10;;;5.03;;
40453;SDS011;26160;51.858;4.398;2023-03-01T16:28:44;8.03;;;4.63;;
40453;SDS011;26160;51.858;4.398;2023-03-01T16:31:11;10.87;;;4.13;;
40453;SDS011;26160;51.858;4.398;2023-03-01T16:33:41;6.53;;;4.30;;
40453;SDS011;26160;51.858;4.398;2023-03-01T16:36:08;6.97;;;3.90;;
40453;SDS011;26160;51.858;4.398;2023-03-01T16:38:36;6.17;;;3.80;;
40453;SDS011;26160;51.858;4.398;2023-03-01T16:41:02;7.17;;;4.57;;
40453;SDS011;26160;51.858;4.398;2023-03-01T16:43:34;6.50;;;3.70;;
40453;SDS011;26160;51.858;4.398;2023-03-01T16:46:02;6.77;;;3.47;;
40453;SDS011;26160;51.858;4.398;2023-03-01T16:48:37;7.23;;;4.20;;
40453;SDS011;26160;51.858;4.398;2023-03-01T16:51:05;7.57;;;4.00;;
40453;SDS011;26160;51.858;4.398;2023-03-01T16:53:33;9.80;;;4.50;;
40453;SDS011;26160;51.858;4.398;2023-03-01T16:56:04;6.40;;;4.67;;
40453;SDS011;26160;51.858;4.398;2023-03-01T16:58:33;6.83;;;4.90;;
40453;SDS011;26160;51.858;4.398;2023-03-01T17:01:10;7.83;;;5.53;;
40453;SDS011;26160;51.858;4.398;2023-03-01T17:03:37;9.30;;;6.27;;
40453;SDS011;26160;51.858;4.398;2023-03-01T17:06:17;8.03;;;5.10;;
40453;SDS011;26160;51.858;4.398;2023-03-01T17:08:46;10.43;;;5.03;;
40453;SDS011;26160;51.858;4.398;2023-03-01T17:11:29;6.73;;;4.47;;
40453;SDS011;26160;51.858;4.398;2023-03-01T17:13:56;8.37;;;4.10;;
40453;SDS011;26160;51.858;4.398;2023-03-01T17:16:28;7.45;;;4.38;;
40453;SDS011;26160;51.858;4.398;2023-03-01T17:18:54;5.90;;;4.23;;
40453;SDS011;26160;51.858;4.398;2023-03-01T17:21:20;10.97;;;4.50;;
40453;SDS011;26160;51.858;4.398;2023-03-01T17:23:49;6.97;;;4.50;;
40453;SDS011;26160;51.858;4.398;2023-03-01T17:26:21;9.30;;;5.22;;
40453;SDS011;26160;51.858;4.398;2023-03-01T17:28:50;8.33;;;5.03;;
40453;SDS011;26160;51.858;4.398;2023-03-01T17:31:20;7.87;;;4.80;;
40453;SDS011;26160;51.858;4.398;2023-03-01T17:33:49;8.63;;;5.30;;
40453;SDS011;26160;51.858;4.398;2023-03-01T17:36:19;8.30;;;4.43;;
40453;SDS011;26160;51.858;4.398;2023-03-01T17:38:50;7.10;;;4.53;;
40453;SDS011;26160;51.858;4.398;2023-03-01T17:44:41;7.57;;;4.77;;
40453;SDS011;26160;51.858;4.398;2023-03-01T17:47:13;7.43;;;4.88;;
40453;SDS011;26160;51.858;4.398;2023-03-01T17:49:39;7.53;;;4.90;;
40453;SDS011;26160;51.858;4.398;2023-03-01T17:52:23;7.07;;;4.77;;
40453;SDS011;26160;51.858;4.398;2023-03-01T17:54:50;7.93;;;5.00;;
40453;SDS011;26160;51.858;4.398;2023-03-01T17:57:20;7.47;;;4.90;;
40453;SDS011;26160;51.858;4.398;2023-03-01T17:59:46;9.10;;;5.40;;
40453;SDS011;26160;51.858;4.398;2023-03-01T18:02:12;14.60;;;8.63;;
40453;SDS011;26160;51.858;4.398;2023-03-01T18:04:39;11.83;;;7.40;;
40453;SDS011;26160;51.858;4.398;2023-03-01T18:07:05;9.50;;;6.30;;
40453;SDS011;26160;51.858;4.398;2023-03-01T18:12:08;10.33;;;4.90;;
40453;SDS011;26160;51.858;4.398;2023-03-01T18:14:35;7.53;;;5.23;;
40453;SDS011;26160;51.858;4.398;2023-03-01T18:17:01;7.40;;;5.33;;
40453;SDS011;26160;51.858;4.398;2023-03-01T18:19:30;9.60;;;5.20;;
40453;SDS011;26160;51.858;4.398;2023-03-01T18:21:57;9.47;;;6.03;;
40453;SDS011;26160;51.858;4.398;2023-03-01T18:24:23;8.40;;;5.67;;
40453;SDS011;26160;51.858;4.398;2023-03-01T18:26:49;8.37;;;5.63;;
40453;SDS011;26160;51.858;4.398;2023-03-01T18:29:15;8.27;;;5.57;;
40453;SDS011;26160;51.858;4.398;2023-03-01T18:36:53;12.47;;;6.03;;
40453;SDS011;26160;51.858;4.398;2023-03-01T18:52:56;11.57;;;6.17;;
40453;SDS011;26160;51.858;4.398;2023-03-01T19:08:53;9.47;;;5.70;;
40453;SDS011;26160;51.858;4.398;2023-03-01T19:24:30;43.10;;;16.80;;
40453;SDS011;26160;51.858;4.398;2023-03-01T19:29:31;101.10;;;30.40;;
40453;SDS011;26160;51.858;4.398;2023-03-01T19:31:58;17.53;;;10.07;;
40453;SDS011;26160;51.858;4.398;2023-03-01T19:37:03;12.30;;;6.27;;
40453;SDS011;26160;51.858;4.398;2023-03-01T19:39:30;10.23;;;6.30;;
40453;SDS011;26160;51.858;4.398;2023-03-01T19:42:12;10.23;;;5.63;;
40453;SDS011;26160;51.858;4.398;2023-03-01T19:44:54;14.00;;;6.07;;
40453;SDS011;26160;51.858;4.398;2023-03-01T19:47:22;14.00;;;6.43;;
40453;SDS011;26160;51.858;4.398;2023-03-01T19:49:51;11.37;;;6.37;;
40453;SDS011;26160;51.858;4.398;2023-03-01T19:52:17;7.53;;;5.23;;
40453;SDS011;26160;51.858;4.398;2023-03-01T19:54:43;10.37;;;5.40;;
40453;SDS011;26160;51.858;4.398;2023-03-01T19:57:10;9.83;;;5.60;;
40453;SDS011;26160;51.858;4.398;2023-03-01T19:59:37;8.40;;;5.67;;
40453;SDS011;26160;51.858;4.398;2023-03-01T20:02:03;9.27;;;5.77;;
40453;SDS011;26160;51.858;4.398;2023-03-01T20:04:30;9.63;;;5.70;;
40453;SDS011;26160;51.858;4.398;2023-03-01T20:06:59;8.83;;;6.23;;
40453;SDS011;26160;51.858;4.398;2023-03-01T20:09:25;9.70;;;5.90;;
40453;SDS011;26160;51.858;4.398;2023-03-01T20:11:56;9.83;;;5.73;;
40453;SDS011;26160;51.858;4.398;2023-03-01T20:14:22;9.03;;;5.43;;
40453;SDS011;26160;51.858;4.398;2023-03-01T20:16:48;10.10;;;6.23;;
40453;SDS011;26160;51.858;4.398;2023-03-01T20:19:14;9.57;;;6.03;;
40453;SDS011;26160;51.858;4.398;2023-03-01T20:21:40;11.30;;;6.00;;
40453;SDS011;26160;51.858;4.398;2023-03-01T20:24:07;10.27;;;5.97;;
40453;SDS011;26160;51.858;4.398;2023-03-01T20:26:33;11.43;;;5.77;;
40453;SDS011;26160;51.858;4.398;2023-03-01T20:29:01;11.30;;;6.03;;
40453;SDS011;26160;51.858;4.398;2023-03-01T20:31:27;10.90;;;6.73;;
40453;SDS011;26160;51.858;4.398;2023-03-01T20:33:57;10.27;;;5.83;;
40453;SDS011;26160;51.858;4.398;2023-03-01T20:36:25;8.93;;;5.83;;
40453;SDS011;26160;51.858;4.398;2023-03-01T20:38:52;8.00;;;5.93;;
40453;SDS011;26160;51.858;4.398;2023-03-01T20:41:18;9.30;;;6.57;;
40453;SDS011;26160;51.858;4.398;2023-03-01T20:53:58;12.57;;;6.70;;
40453;SDS011;26160;51.858;4.398;2023-03-01T21:17:28;9.40;;;6.43;;
40453;SDS011;26160;51.858;4.398;2023-03-01T21:20:00;11.52;;;7.00;;
40453;SDS011;26160;51.858;4.398;2023-03-01T21:22:26;11.57;;;6.27;;
40453;SDS011;26160;51.858;4.398;2023-03-01T21:24:53;10.17;;;6.73;;
40453;SDS011;26160;51.858;4.398;2023-03-01T21:27:19;9.90;;;6.10;;
40453;SDS011;26160;51.858;4.398;2023-03-01T21:29:45;9.57;;;6.43;;
40453;SDS011;26160;51.858;4.398;2023-03-01T21:32:15;11.93;;;7.23;;
40453;SDS011;26160;51.858;4.398;2023-03-01T21:34:41;12.53;;;6.53;;
40453;SDS011;26160;51.858;4.398;2023-03-01T21:37:17;9.50;;;6.37;;
40453;SDS011;26160;51.858;4.398;2023-03-01T21:39:46;11.23;;;5.93;;
40453;SDS011;26160;51.858;4.398;2023-03-01T21:42:12;11.33;;;5.97;;
40453;SDS011;26160;51.858;4.398;2023-03-01T21:44:38;9.47;;;6.17;;
40453;SDS011;26160;51.858;4.398;2023-03-01T21:50:23;11.27;;;6.50;;
40453;SDS011;26160;51.858;4.398;2023-03-01T21:52:50;11.50;;;7.03;;
40453;SDS011;26160;51.858;4.398;2023-03-01T21:55:16;10.63;;;7.07;;
40453;SDS011;26160;51.858;4.398;2023-03-01T21:57:45;11.73;;;6.80;;
40453;SDS011;26160;51.858;4.398;2023-03-01T22:00:11;10.70;;;7.23;;
40453;SDS011;26160;51.858;4.398;2023-03-01T22:02:49;12.70;;;7.53;;
40453;SDS011;26160;51.858;4.398;2023-03-01T22:05:15;11.37;;;7.07;;
40453;SDS011;26160;51.858;4.398;2023-03-01T22:07:42;11.17;;;7.30;;
40453;SDS011;26160;51.858;4.398;2023-03-01T22:10:13;13.13;;;7.23;;
40453;SDS011;26160;51.858;4.398;2023-03-01T22:12:57;12.83;;;7.67;;
40453;SDS011;26160;51.858;4.398;2023-03-01T22:15:24;13.33;;;7.13;;
40453;SDS011;26160;51.858;4.398;2023-03-01T22:17:52;10.97;;;7.57;;
40453;SDS011;26160;51.858;4.398;2023-03-01T22:20:21;13.03;;;7.27;;
40453;SDS011;26160;51.858;4.398;2023-03-01T22:22:47;13.20;;;7.50;;
40453;SDS011;26160;51.858;4.398;2023-03-01T22:25:13;11.87;;;7.73;;
40453;SDS011;26160;51.858;4.398;2023-03-01T22:27:43;11.50;;;7.80;;
40453;SDS011;26160;51.858;4.398;2023-03-01T22:30:09;12.27;;;7.53;;
40453;SDS011;26160;51.858;4.398;2023-03-01T22:32:39;10.97;;;7.70;;
40453;SDS011;26160;51.858;4.398;2023-03-01T22:35:08;13.77;;;7.63;;
40453;SDS011;26160;51.858;4.398;2023-03-01T22:37:34;13.83;;;7.50;;
40453;SDS011;26160;51.858;4.398;2023-03-01T22:40:01;12.03;;;7.97;;
40453;SDS011;26160;51.858;4.398;2023-03-01T22:42:27;13.53;;;7.97;;
40453;SDS011;26160;51.858;4.398;2023-03-01T22:44:53;10.50;;;6.97;;
40453;SDS011;26160;51.858;4.398;2023-03-01T22:47:19;11.40;;;7.20;;
40453;SDS011;26160;51.858;4.398;2023-03-01T22:49:46;13.20;;;7.77;;
40453;SDS011;26160;51.858;4.398;2023-03-01T22:52:12;13.17;;;7.27;;
40453;SDS011;26160;51.858;4.398;2023-03-01T22:54:38;11.83;;;6.93;;
40453;SDS011;26160;51.858;4.398;2023-03-01T22:57:10;12.00;;;7.50;;
40453;SDS011;26160;51.858;4.398;2023-03-01T22:59:36;11.70;;;7.10;;
40453;SDS011;26160;51.858;4.398;2023-03-01T23:02:02;12.57;;;8.00;;
40453;SDS011;26160;51.858;4.398;2023-03-01T23:04:28;12.57;;;6.90;;
40453;SDS011;26160;51.858;4.398;2023-03-01T23:06:58;12.37;;;6.67;;
40453;SDS011;26160;51.858;4.398;2023-03-01T23:09:32;13.00;;;7.33;;
40453;SDS011;26160;51.858;4.398;2023-03-01T23:11:59;11.60;;;6.60;;
40453;SDS011;26160;51.858;4.398;2023-03-01T23:14:29;11.17;;;7.33;;
40453;SDS011;26160;51.858;4.398;2023-03-01T23:16:58;12.70;;;7.90;;
40453;SDS011;26160;51.858;4.398;2023-03-01T23:19:26;11.17;;;7.10;;
40453;SDS011;26160;51.858;4.398;2023-03-01T23:21:53;10.17;;;6.80;;
40453;SDS011;26160;51.858;4.398;2023-03-01T23:24:20;11.13;;;7.27;;
40453;SDS011;26160;51.858;4.398;2023-03-01T23:26:47;12.47;;;7.83;;
40453;SDS011;26160;51.858;4.398;2023-03-01T23:29:20;12.27;;;7.77;;
40453;SDS011;26160;51.858;4.398;2023-03-01T23:31:47;13.43;;;9.20;;
40453;SDS011;26160;51.858;4.398;2023-03-01T23:34:13;14.53;;;7.70;;
40453;SDS011;26160;51.858;4.398;2023-03-01T23:36:43;12.90;;;7.67;;
40453;SDS011;26160;51.858;4.398;2023-03-01T23:39:10;14.47;;;8.00;;
40453;SDS011;26160;51.858;4.398;2023-03-01T23:41:37;14.87;;;8.70;;
40453;SDS011;26160;51.858;4.398;2023-03-01T23:44:04;14.53;;;8.27;;
40453;SDS011;26160;51.858;4.398;2023-03-01T23:46:32;12.73;;;8.77;;
40453;SDS011;26160;51.858;4.398;2023-03-01T23:49:00;14.90;;;8.77;;
40453;SDS011;26160;51.858;4.398;2023-03-01T23:51:27;15.10;;;9.00;;
40453;SDS011;26160;51.858;4.398;2023-03-01T23:53:54;14.80;;;8.13;;
40453;SDS011;26160;51.858;4.398;2023-03-01T23:56:25;16.50;;;8.90;;
40453;SDS011;26160;51.858;4.398;2023-03-01T23:58:57;17.10;;;10.50;;
